createdAt,value
2023-07-24T00:01:31.695Z,97.10
2023-07-24T00:04:00.210Z,97.50
2023-07-24T00:06:35.531Z,97.00
2023-07-24T00:09:03.496Z,96.90
2023-07-24T00:11:31.446Z,96.80
2023-07-24T00:13:59.365Z,96.80
2023-07-24T00:16:27.406Z,96.80
2023-07-24T00:18:58.283Z,96.80
2023-07-24T00:21:32.463Z,96.90
2023-07-24T00:24:11.039Z,96.80
2023-07-24T00:26:47.140Z,96.80
2023-07-24T00:29:40.060Z,96.80
2023-07-24T00:32:16.964Z,96.80
2023-07-24T00:34:44.890Z,96.70
2023-07-24T00:37:12.807Z,96.70
2023-07-24T00:39:42.088Z,96.70
2023-07-24T00:42:10.071Z,96.80
2023-07-24T00:44:38.772Z,96.80
2023-07-24T00:47:15.282Z,96.80
2023-07-24T00:49:46.333Z,96.80
2023-07-24T00:52:17.356Z,96.70
2023-07-24T00:55:02.181Z,96.70
2023-07-24T00:57:33.287Z,96.60
2023-07-24T01:00:01.916Z,96.60
2023-07-24T01:02:36.406Z,96.70
2023-07-24T01:05:05.118Z,96.70
2023-07-24T01:08:34.108Z,96.70
2023-07-24T01:11:57.145Z,96.70
2023-07-24T01:15:19.886Z,96.70
2023-07-24T01:18:42.774Z,96.70
2023-07-24T01:22:12.890Z,96.70
2023-07-24T01:25:36.286Z,96.70
2023-07-24T01:28:59.944Z,96.90
2023-07-24T01:32:30.581Z,96.90
2023-07-24T01:35:56.135Z,97.10
2023-07-24T01:39:19.007Z,97.30
2023-07-24T01:42:42.098Z,97.50
2023-07-24T01:46:12.286Z,97.40
2023-07-24T01:49:35.586Z,97.50
2023-07-24T01:52:58.696Z,97.60
2023-07-24T01:56:21.689Z,97.80
2023-07-24T01:59:44.624Z,97.70
2023-07-24T02:03:08.260Z,98.30
2023-07-24T02:06:31.406Z,98.50
2023-07-24T02:09:54.646Z,99.70
2023-07-24T02:13:19.548Z,99.90
2023-07-24T02:16:52.000Z,99.90
2023-07-24T02:20:17.328Z,99.90
2023-07-24T02:23:40.408Z,99.90
2023-07-24T02:27:03.586Z,99.90
2023-07-24T02:30:27.069Z,99.90
2023-07-24T02:33:49.999Z,99.90
2023-07-24T02:37:13.061Z,99.90
2023-07-24T02:40:36.163Z,99.90
2023-07-24T02:44:00.053Z,99.90
2023-07-24T02:47:22.967Z,99.90
2023-07-24T02:50:46.994Z,99.90
2023-07-24T02:54:12.737Z,99.90
2023-07-24T02:57:39.024Z,99.90
2023-07-24T03:01:02.391Z,99.90
2023-07-24T03:04:27.372Z,99.90
2023-07-24T03:07:50.219Z,99.90
2023-07-24T03:11:13.426Z,99.90
2023-07-24T03:14:36.654Z,99.90
2023-07-24T03:18:06.722Z,99.90
2023-07-24T03:21:29.950Z,99.90
2023-07-24T03:24:59.101Z,99.90
2023-07-24T03:28:22.136Z,99.90
2023-07-24T03:31:44.990Z,99.90
2023-07-24T03:35:07.775Z,99.90
2023-07-24T03:38:33.518Z,99.90
2023-07-24T03:41:56.295Z,99.90
2023-07-24T03:48:56.026Z,99.90
2023-07-24T03:52:18.976Z,99.90
2023-07-24T03:55:44.840Z,99.90
2023-07-24T03:59:07.750Z,99.90
2023-07-24T04:02:30.656Z,99.90
2023-07-24T04:05:53.464Z,99.50
2023-07-24T04:09:16.584Z,99.30
2023-07-24T04:12:39.659Z,99.60
2023-07-24T04:16:02.465Z,99.40
2023-07-24T04:19:25.344Z,99.80
2023-07-24T04:22:48.395Z,99.90
2023-07-24T04:26:11.102Z,99.30
2023-07-24T04:29:40.150Z,99.60
2023-07-24T04:33:05.339Z,99.80
2023-07-24T04:36:29.179Z,99.30
2023-07-24T04:39:52.501Z,99.20
2023-07-24T04:43:15.584Z,99.00
2023-07-24T04:46:38.641Z,99.00
2023-07-24T04:50:01.482Z,98.90
2023-07-24T04:53:24.761Z,99.10
2023-07-24T04:56:47.853Z,98.90
2023-07-24T05:00:10.706Z,98.90
2023-07-24T05:03:33.759Z,98.90
2023-07-24T05:06:56.852Z,98.80
2023-07-24T05:13:56.953Z,98.90
2023-07-24T05:17:20.217Z,99.90
2023-07-24T05:20:43.230Z,99.70
2023-07-24T05:24:06.265Z,99.30
2023-07-24T05:27:48.700Z,99.30
2023-07-24T05:31:11.625Z,98.90
2023-07-24T05:34:41.787Z,98.80
2023-07-24T05:38:05.457Z,98.90
2023-07-24T05:41:32.004Z,99.00
2023-07-24T05:44:55.076Z,98.90
2023-07-24T05:48:18.303Z,99.00
2023-07-24T05:51:43.553Z,99.10
2023-07-24T05:55:07.060Z,99.10
2023-07-24T05:58:39.271Z,99.70
2023-07-24T06:02:02.103Z,99.90
2023-07-24T06:05:25.142Z,99.90
2023-07-24T06:08:48.038Z,99.90
2023-07-24T06:12:11.150Z,99.90
2023-07-24T06:15:41.417Z,99.90
2023-07-24T06:19:05.149Z,99.90
2023-07-24T06:22:35.475Z,99.90
2023-07-24T06:25:58.603Z,99.90
2023-07-24T06:29:27.776Z,99.90
2023-07-24T06:32:53.000Z,99.90
2023-07-24T06:36:16.350Z,99.90
2023-07-24T06:39:49.539Z,99.90
2023-07-24T06:43:12.350Z,99.90
2023-07-24T06:46:36.195Z,99.90
2023-07-24T06:49:59.026Z,99.90
2023-07-24T06:53:22.175Z,99.90
2023-07-24T06:56:45.002Z,99.90
2023-07-24T07:00:08.055Z,99.90
2023-07-24T07:03:37.757Z,99.90
2023-07-24T07:07:01.202Z,99.90
2023-07-24T07:10:24.073Z,99.90
2023-07-24T07:13:47.295Z,99.90
2023-07-24T07:17:10.548Z,99.90
2023-07-24T07:20:35.659Z,99.90
2023-07-24T07:24:02.270Z,99.90
2023-07-24T07:27:24.975Z,99.90
2023-07-24T07:30:49.277Z,99.90
2023-07-24T07:34:12.262Z,99.90
2023-07-24T07:37:37.384Z,99.90
2023-07-24T07:41:04.226Z,99.90
2023-07-24T07:44:32.300Z,99.90
2023-07-24T07:47:55.418Z,99.90
2023-07-24T07:51:18.530Z,99.90
2023-07-24T07:54:41.360Z,99.90
2023-07-24T07:58:04.288Z,99.90
2023-07-24T08:01:27.277Z,99.90
2023-07-24T08:04:52.239Z,99.90
2023-07-24T08:08:15.099Z,99.90
2023-07-24T08:11:37.939Z,99.90
2023-07-24T08:15:03.432Z,99.90
2023-07-24T08:18:26.358Z,99.90
2023-07-24T08:21:49.278Z,99.90
2023-07-24T08:25:12.094Z,99.90
2023-07-24T08:32:22.519Z,99.90
2023-07-24T08:35:45.916Z,99.90
2023-07-24T08:39:08.905Z,99.90
2023-07-24T08:42:35.157Z,99.90
2023-07-24T08:45:58.154Z,99.90
2023-07-24T08:49:21.130Z,99.90
2023-07-24T08:52:44.065Z,99.90
2023-07-24T08:56:07.451Z,99.90
2023-07-24T08:59:31.284Z,99.90
2023-07-24T09:02:54.195Z,99.90
2023-07-24T09:06:16.942Z,99.90
2023-07-24T09:13:16.718Z,99.90
2023-07-24T09:16:39.879Z,99.90
2023-07-24T09:20:12.281Z,99.90
2023-07-24T09:23:35.611Z,99.90
2023-07-24T09:26:58.952Z,99.90
2023-07-24T09:30:22.174Z,99.90
2023-07-24T09:33:45.309Z,99.90
2023-07-24T09:37:08.313Z,99.90
2023-07-24T09:40:31.251Z,99.90
2023-07-24T09:43:54.354Z,99.90
2023-07-24T09:50:43.676Z,99.90
2023-07-24T09:54:06.819Z,99.90
2023-07-24T09:57:29.772Z,99.90
2023-07-24T10:00:52.773Z,99.90
2023-07-24T10:04:15.641Z,99.90
2023-07-24T10:07:38.825Z,99.90
2023-07-24T10:11:04.915Z,99.90
2023-07-24T10:14:28.154Z,99.90
2023-07-24T10:17:53.513Z,99.90
2023-07-24T10:21:19.717Z,99.90
2023-07-24T10:28:31.351Z,99.90
2023-07-24T10:31:57.681Z,99.90
2023-07-24T10:35:24.366Z,99.90
2023-07-24T10:38:50.449Z,99.90
2023-07-24T10:42:13.752Z,99.90
2023-07-24T10:45:36.675Z,99.90
2023-07-24T10:49:02.748Z,99.90
2023-07-24T10:52:36.604Z,99.90
2023-07-24T10:56:02.000Z,99.90
2023-07-24T10:59:25.259Z,99.90
2023-07-24T11:02:54.242Z,99.90
2023-07-24T11:06:17.488Z,99.90
2023-07-24T11:09:40.705Z,99.90
2023-07-24T11:13:08.808Z,99.90
2023-07-24T11:16:33.436Z,99.90
2023-07-24T11:19:56.393Z,99.90
2023-07-24T11:23:19.270Z,99.90
2023-07-24T11:26:45.123Z,99.90
2023-07-24T11:30:08.373Z,99.90
2023-07-24T11:33:31.398Z,99.90
2023-07-24T11:36:54.428Z,99.90
2023-07-24T11:40:17.316Z,99.90
2023-07-24T11:43:43.273Z,99.90
2023-07-24T11:47:06.286Z,99.90
2023-07-24T11:50:29.420Z,99.90
2023-07-24T11:53:52.414Z,99.90
2023-07-24T11:57:15.153Z,99.90
2023-07-24T12:00:38.468Z,99.90
2023-07-24T12:04:01.669Z,99.90
2023-07-24T12:07:24.767Z,99.90
2023-07-24T12:10:47.729Z,99.90
2023-07-24T12:14:10.731Z,99.90
2023-07-24T12:17:33.792Z,99.90
2023-07-24T12:20:56.784Z,99.90
2023-07-24T12:24:28.781Z,99.90
2023-07-24T12:27:51.715Z,99.90
2023-07-24T12:31:15.464Z,99.90
2023-07-24T12:34:38.525Z,99.90
2023-07-24T12:38:01.544Z,99.90
2023-07-24T12:41:26.617Z,99.90
2023-07-24T12:44:49.443Z,99.90
2023-07-24T12:48:12.667Z,99.90
2023-07-24T12:51:38.810Z,99.90
2023-07-24T12:55:02.851Z,99.90
2023-07-24T12:58:26.048Z,99.90
2023-07-24T13:02:00.414Z,99.90
2023-07-24T13:05:30.837Z,99.90
2023-07-24T13:08:53.837Z,99.90
2023-07-24T13:12:16.811Z,99.90
2023-07-24T13:15:41.466Z,99.90
2023-07-24T13:19:04.395Z,99.90
2023-07-24T13:22:27.540Z,99.90
2023-07-24T13:25:53.547Z,99.90
2023-07-24T13:29:17.447Z,99.90
2023-07-24T13:32:40.390Z,99.90
2023-07-24T13:36:03.265Z,99.90
2023-07-24T13:39:26.208Z,99.90
2023-07-24T13:42:49.204Z,99.90
2023-07-24T13:46:12.122Z,99.90
2023-07-24T13:49:35.196Z,99.90
2023-07-24T13:52:58.102Z,99.90
2023-07-24T13:56:21.492Z,99.90
2023-07-24T13:59:44.570Z,99.90
2023-07-24T14:03:07.705Z,99.90
2023-07-24T14:06:34.016Z,99.90
2023-07-24T14:10:00.522Z,99.90
2023-07-24T14:13:23.522Z,99.90
2023-07-24T14:16:50.583Z,99.90
2023-07-24T14:20:13.355Z,99.90
2023-07-24T14:23:36.282Z,99.90
2023-07-24T14:27:02.336Z,99.90
2023-07-24T14:30:25.416Z,99.90
2023-07-24T14:33:48.372Z,99.90
2023-07-24T14:37:12.525Z,99.90
2023-07-24T14:40:37.679Z,99.90
2023-07-24T14:51:20.168Z,99.90
2023-07-24T14:54:43.134Z,99.90
2023-07-24T14:58:06.072Z,99.90
2023-07-24T15:01:29.903Z,99.90
2023-07-24T15:04:54.828Z,99.90
2023-07-24T15:08:17.631Z,99.90
2023-07-24T15:11:40.519Z,99.90
2023-07-24T15:15:03.630Z,99.90
2023-07-24T15:18:26.657Z,99.90
2023-07-24T15:21:49.489Z,99.90
2023-07-24T15:25:12.339Z,99.90
2023-07-24T15:28:42.682Z,99.90
2023-07-24T15:32:05.567Z,99.90
2023-07-24T15:35:31.594Z,99.90
2023-07-24T15:38:54.793Z,99.90
2023-07-24T15:42:17.840Z,99.90
2023-07-24T15:45:41.602Z,99.90
2023-07-24T15:49:04.693Z,99.90
2023-07-24T15:52:27.749Z,99.90
2023-07-24T15:55:50.689Z,99.90
2023-07-24T15:59:15.561Z,99.90
2023-07-24T16:02:41.661Z,99.90
2023-07-24T16:06:04.691Z,99.90
2023-07-24T16:09:30.869Z,99.90
2023-07-24T16:12:53.902Z,99.90
2023-07-24T16:16:16.613Z,99.90
2023-07-24T16:19:39.654Z,99.90
2023-07-24T16:23:05.610Z,99.90
2023-07-24T16:26:28.906Z,99.90
2023-07-24T16:29:55.922Z,99.90
2023-07-24T16:36:45.624Z,99.90
2023-07-24T16:40:09.843Z,99.90
2023-07-24T16:43:38.794Z,99.90
2023-07-24T16:50:28.579Z,99.90
2023-07-24T16:53:51.489Z,99.90
2023-07-24T16:57:14.233Z,99.90
2023-07-24T17:00:37.074Z,99.90
2023-07-24T17:04:00.019Z,99.90
2023-07-24T17:07:22.939Z,99.90
2023-07-24T17:10:45.844Z,99.90
2023-07-24T17:14:10.980Z,99.70
2023-07-24T17:17:34.672Z,99.90
2023-07-24T17:20:57.669Z,99.40
2023-07-24T17:24:20.803Z,99.10
2023-07-24T17:27:45.890Z,99.90
2023-07-24T17:31:08.901Z,99.50
2023-07-24T17:34:31.815Z,98.40
2023-07-24T17:37:54.762Z,99.10
2023-07-24T17:41:17.974Z,99.90
2023-07-24T17:44:41.031Z,99.20
2023-07-24T17:48:05.291Z,99.50
2023-07-24T17:51:32.129Z,98.60
2023-07-24T17:54:55.652Z,97.90
2023-07-24T17:58:18.542Z,99.50
2023-07-24T18:01:41.345Z,97.90
2023-07-24T18:05:04.541Z,98.60
2023-07-24T18:08:27.669Z,98.20
2023-07-24T18:11:50.655Z,98.00
2023-07-24T18:15:13.643Z,98.10
2023-07-24T18:18:38.837Z,97.70
2023-07-24T18:22:01.808Z,97.30
2023-07-24T18:25:24.825Z,96.40
2023-07-24T18:28:50.928Z,96.90
2023-07-24T18:32:14.279Z,96.10
2023-07-24T18:35:44.861Z,97.00
2023-07-24T18:39:10.111Z,96.60
2023-07-24T18:42:33.098Z,96.60
2023-07-24T18:45:56.312Z,96.90
2023-07-24T18:49:19.451Z,96.80
2023-07-24T18:52:47.966Z,97.50
2023-07-24T18:56:11.160Z,97.10
2023-07-24T18:59:34.107Z,97.60
2023-07-24T19:02:57.011Z,97.90
2023-07-24T19:06:19.830Z,98.00
2023-07-24T19:09:43.066Z,97.50
2023-07-24T19:13:05.747Z,97.50
2023-07-24T19:16:35.784Z,97.70
2023-07-24T19:19:59.153Z,97.30
2023-07-24T19:23:22.303Z,97.90
2023-07-24T19:26:45.130Z,97.90
2023-07-24T19:30:11.377Z,98.00
2023-07-24T19:33:34.348Z,98.30
2023-07-24T19:36:57.857Z,98.60
2023-07-24T19:40:21.131Z,98.40
2023-07-24T19:43:44.025Z,98.30
2023-07-24T19:47:06.902Z,99.00
2023-07-24T19:50:29.784Z,98.60
2023-07-24T19:53:52.616Z,98.40
2023-07-24T19:57:15.652Z,98.60
2023-07-24T20:00:41.893Z,98.90
2023-07-24T20:04:06.752Z,98.80
2023-07-24T20:07:36.866Z,99.10
2023-07-24T20:11:00.741Z,98.80
2023-07-24T20:14:26.370Z,99.10
2023-07-24T20:17:49.254Z,99.30
2023-07-24T20:21:12.355Z,99.10
2023-07-24T20:24:37.342Z,99.30
2023-07-24T20:28:00.737Z,99.80
2023-07-24T20:31:24.832Z,99.50
2023-07-24T20:34:47.617Z,99.90
2023-07-24T20:38:10.594Z,99.60
2023-07-24T20:45:13.627Z,99.60
2023-07-24T20:48:36.617Z,99.80
2023-07-24T20:51:59.485Z,99.90
2023-07-24T20:55:27.620Z,99.90
2023-07-24T20:58:50.426Z,99.60
2023-07-24T21:02:16.338Z,99.40
2023-07-24T21:05:39.838Z,99.40
2023-07-24T21:09:02.828Z,99.50
2023-07-24T21:12:31.973Z,99.30
2023-07-24T21:15:54.883Z,99.50
2023-07-24T21:19:19.089Z,99.20
2023-07-24T21:22:42.101Z,99.60
2023-07-24T21:26:05.174Z,99.50
2023-07-24T21:29:30.102Z,99.20
2023-07-24T21:32:53.357Z,99.70
2023-07-24T21:36:16.781Z,99.70
2023-07-24T21:39:39.683Z,99.70
2023-07-24T21:43:02.807Z,99.90
2023-07-24T21:46:31.947Z,99.90
2023-07-24T21:49:56.975Z,99.90
2023-07-24T21:53:19.783Z,99.90
2023-07-24T21:56:42.677Z,99.90
2023-07-24T22:00:05.400Z,99.90
2023-07-24T22:03:31.305Z,99.90
2023-07-24T22:06:54.379Z,99.90
2023-07-24T22:10:20.848Z,99.90
2023-07-24T22:13:43.939Z,99.90
2023-07-24T22:17:07.011Z,99.90
2023-07-24T22:20:39.205Z,99.90
2023-07-24T22:24:04.488Z,99.40
2023-07-24T22:27:27.873Z,99.90
2023-07-24T22:30:50.801Z,99.10
2023-07-24T22:34:15.878Z,99.40
2023-07-24T22:37:38.924Z,99.50
2023-07-24T22:41:02.058Z,99.90
2023-07-24T22:44:25.042Z,99.80
2023-07-24T22:47:55.440Z,99.90
2023-07-24T22:51:18.384Z,99.90
2023-07-24T22:54:41.217Z,99.90
2023-07-24T22:58:05.885Z,99.90
2023-07-24T23:01:29.168Z,99.90
2023-07-24T23:05:01.160Z,99.90
2023-07-24T23:08:24.410Z,99.90
2023-07-24T23:11:47.907Z,99.90
2023-07-24T23:15:11.001Z,99.90
2023-07-24T23:18:34.179Z,99.90
2023-07-24T23:21:57.100Z,99.90
2023-07-24T23:25:20.359Z,99.90
2023-07-24T23:28:43.268Z,99.90
2023-07-24T23:32:06.238Z,99.90
2023-07-24T23:35:29.087Z,99.90
2023-07-24T23:38:51.946Z,99.90
2023-07-24T23:42:14.853Z,99.90
2023-07-24T23:45:37.868Z,99.90
2023-07-24T23:49:03.881Z,99.90
2023-07-24T23:52:26.807Z,99.90
2023-07-24T23:55:49.560Z,99.90
2023-07-24T23:59:14.608Z,99.90
